createdAt,value
2016-06-25T00:00:17.707Z,25.1
2016-06-25T00:01:19.034Z,25.1
2016-06-25T00:02:20.360Z,25.1
2016-06-25T00:03:21.572Z,25.1
2016-06-25T00:04:22.900Z,25.1
2016-06-25T00:05:24.232Z,25.1
2016-06-25T00:06:25.720Z,25
2016-06-25T00:07:27.061Z,25
2016-06-25T00:08:27.975Z,25
2016-06-25T00:09:29.295Z,25
2016-06-25T00:10:30.876Z,25
2016-06-25T00:11:32.206Z,25
2016-06-25T00:12:33.550Z,24.9
2016-06-25T00:13:34.870Z,25
2016-06-25T00:14:36.329Z,25
2016-06-25T00:15:37.532Z,25
2016-06-25T00:16:38.844Z,25
2016-06-25T00:17:40.476Z,25
2016-06-25T00:18:41.370Z,25
2016-06-25T00:19:42.584Z,25
2016-06-25T00:20:44.147Z,25
2016-06-25T00:21:45.256Z,24.9
2016-06-25T00:22:46.579Z,24.9
2016-06-25T00:23:48.152Z,24.9
2016-06-25T00:24:49.737Z,24.9
2016-06-25T00:25:51.437Z,24.9
2016-06-25T00:26:53.029Z,24.9
2016-06-25T00:27:54.534Z,25
2016-06-25T00:28:55.553Z,25
2016-06-25T00:29:57.172Z,24.9
2016-06-25T00:30:58.721Z,24.9
2016-06-25T00:32:00.309Z,24.9
2016-06-25T00:33:02.007Z,24.9
2016-06-25T00:34:03.611Z,24.9
2016-06-25T00:35:05.058Z,24.9
2016-06-25T00:37:08.241Z,24.9
2016-06-25T00:38:09.860Z,24.9
2016-06-25T00:39:10.999Z,24.9
2016-06-25T00:40:12.210Z,24.9
2016-06-25T00:41:13.793Z,24.9
2016-06-25T00:42:15.487Z,24.9
2016-06-25T00:43:16.819Z,24.9
2016-06-25T00:44:18.398Z,24.9
2016-06-25T00:46:21.056Z,24.9
2016-06-25T00:47:22.525Z,24.8
2016-06-25T00:48:24.022Z,24.9
2016-06-25T00:49:25.162Z,24.8
2016-06-25T00:50:26.250Z,24.9
2016-06-25T00:51:27.581Z,24.8
2016-06-25T00:52:28.918Z,24.8
2016-06-25T00:53:30.619Z,24.8
2016-06-25T00:54:32.116Z,24.8
2016-06-25T00:55:33.669Z,24.8
2016-06-25T00:56:35.362Z,24.9
2016-06-25T00:57:36.971Z,24.8
2016-06-25T00:58:38.213Z,24.8
2016-06-25T00:59:39.241Z,24.8
2016-06-25T01:00:40.820Z,24.8
2016-06-25T01:01:42.405Z,24.8
2016-06-25T01:02:43.986Z,24.8
2016-06-25T01:03:45.565Z,24.8
2016-06-25T01:04:46.900Z,24.8
2016-06-25T01:05:48.230Z,24.8
2016-06-25T01:06:49.801Z,24.7
2016-06-25T01:07:51.384Z,24.7
2016-06-25T01:08:52.775Z,24.8
2016-06-25T01:09:53.799Z,24.8
2016-06-25T01:10:55.501Z,24.7
2016-06-25T01:11:56.966Z,24.7
2016-06-25T01:12:58.562Z,24.7
2016-06-25T01:14:00.158Z,24.7
2016-06-25T01:15:01.721Z,24.7
2016-06-25T01:16:03.291Z,24.7
2016-06-25T01:17:04.891Z,24.7
2016-06-25T01:18:06.465Z,24.7
2016-06-25T01:19:08.097Z,24.7
2016-06-25T01:20:09.142Z,24.7
2016-06-25T01:21:10.710Z,24.7
2016-06-25T01:22:12.407Z,24.7
2016-06-25T01:23:13.871Z,24.7
2016-06-25T01:24:15.571Z,24.7
2016-06-25T01:25:17.037Z,24.7
2016-06-25T01:26:18.618Z,24.7
2016-06-25T01:27:20.208Z,24.7
2016-06-25T01:28:21.901Z,24.7
2016-06-25T01:29:23.456Z,24.6
2016-06-25T01:30:24.564Z,24.6
2016-06-25T01:31:26.028Z,24.6
2016-06-25T01:32:27.747Z,24.7
2016-06-25T01:33:29.208Z,24.7
2016-06-25T01:34:30.906Z,24.6
2016-06-25T01:35:32.482Z,24.7
2016-06-25T01:36:34.063Z,24.7
2016-06-25T01:37:35.535Z,24.7
2016-06-25T01:38:37.122Z,24.7
2016-06-25T01:39:38.881Z,24.7
2016-06-25T01:40:39.772Z,24.7
2016-06-25T01:41:41.469Z,24.7
2016-06-25T01:42:42.939Z,24.7
2016-06-25T01:43:44.525Z,24.8
2016-06-25T01:44:46.221Z,24.8
2016-06-25T01:45:47.682Z,24.8
2016-06-25T01:46:49.014Z,24.8
2016-06-25T01:47:50.348Z,24.8
2016-06-25T01:48:51.790Z,24.8
2016-06-25T01:49:53.060Z,24.8
2016-06-25T01:50:54.078Z,24.8
2016-06-25T01:51:55.412Z,24.8
2016-06-25T01:52:56.755Z,24.8
2016-06-25T01:53:58.072Z,24.9
2016-06-25T01:54:59.572Z,24.9
2016-06-25T01:56:00.733Z,24.9
2016-06-25T01:57:02.063Z,24.9
2016-06-25T01:58:03.394Z,24.9
2016-06-25T01:59:04.722Z,24.9
2016-06-25T02:00:06.106Z,24.9
2016-06-25T02:01:07.237Z,24.9
2016-06-25T02:02:08.210Z,24.9
2016-06-25T02:03:09.651Z,24.9
2016-06-25T02:04:10.858Z,24.9
2016-06-25T02:05:11.935Z,24.9
2016-06-25T02:06:13.261Z,24.9
2016-06-25T02:07:14.338Z,24.9
2016-06-25T02:08:15.524Z,24.9
2016-06-25T02:09:16.487Z,24.9
2016-06-25T02:10:17.618Z,24.9
2016-06-25T02:11:18.643Z,24.9
2016-06-25T02:12:19.827Z,24.9
2016-06-25T02:13:20.791Z,24.9
2016-06-25T02:14:21.984Z,24.9
2016-06-25T02:15:22.944Z,24.9
2016-06-25T02:16:24.033Z,24.9
2016-06-25T02:17:25.204Z,25
2016-06-25T02:18:26.171Z,24.9
2016-06-25T02:19:27.244Z,25
2016-06-25T02:20:28.495Z,24.9
2016-06-25T02:21:29.397Z,24.9
2016-06-25T02:22:30.475Z,24.9
2016-06-25T02:23:31.549Z,24.9
2016-06-25T02:24:32.634Z,24.9
2016-06-25T02:25:33.704Z,24.9
2016-06-25T02:26:34.778Z,24.9
2016-06-25T02:27:35.852Z,24.9
2016-06-25T02:28:36.924Z,24.9
2016-06-25T02:29:38.004Z,24.9
2016-06-25T02:30:39.252Z,24.9
2016-06-25T02:31:40.148Z,25
2016-06-25T02:32:41.235Z,24.9
2016-06-25T02:33:42.305Z,24.9
2016-06-25T02:34:43.383Z,24.9
2016-06-25T02:35:44.457Z,24.9
2016-06-25T02:36:45.647Z,24.9
2016-06-25T02:37:46.608Z,24.9
2016-06-25T02:39:48.876Z,24.9
2016-06-25T02:40:49.887Z,24.9
2016-06-25T02:41:51.019Z,25
2016-06-25T02:42:51.987Z,24.9
2016-06-25T02:43:53.060Z,24.9
2016-06-25T02:44:54.259Z,24.9
2016-06-25T02:45:55.326Z,24.9
2016-06-25T02:46:56.282Z,25
2016-06-25T02:47:57.479Z,24.9
2016-06-25T02:48:58.428Z,25
2016-06-25T02:49:59.505Z,25
2016-06-25T02:51:00.647Z,25
2016-06-25T02:52:01.658Z,25
2016-06-25T02:53:02.733Z,24.9
2016-06-25T02:54:03.811Z,24.9
2016-06-25T02:55:05.082Z,25
2016-06-25T02:56:05.954Z,25
2016-06-25T02:57:07.143Z,25
2016-06-25T02:58:07.846Z,25
2016-06-25T02:59:08.667Z,25
2016-06-25T03:00:09.491Z,25
2016-06-25T03:01:10.369Z,25
2016-06-25T03:02:11.387Z,25
2016-06-25T03:03:12.213Z,24.9
2016-06-25T03:04:13.306Z,25
2016-06-25T03:05:14.105Z,25
2016-06-25T03:06:14.946Z,24.9
2016-06-25T03:07:15.759Z,25
2016-06-25T03:08:16.576Z,24.9
2016-06-25T03:09:17.421Z,24.9
2016-06-25T03:10:18.219Z,25
2016-06-25T03:11:19.101Z,24.9
2016-06-25T03:12:20.116Z,25
2016-06-25T03:13:20.943Z,24.9
2016-06-25T03:14:21.883Z,24.9
2016-06-25T03:15:22.702Z,24.9
2016-06-25T03:16:23.522Z,24.9
2016-06-25T03:17:24.230Z,24.9
2016-06-25T03:18:25.055Z,24.9
2016-06-25T03:19:25.919Z,25
2016-06-25T03:20:26.873Z,24.9
2016-06-25T03:21:27.635Z,24.9
2016-06-25T03:22:28.591Z,24.9
2016-06-25T03:23:29.421Z,24.9
2016-06-25T03:24:30.243Z,24.9
2016-06-25T03:25:31.060Z,24.9
2016-06-25T03:26:31.911Z,24.9
2016-06-25T03:27:32.713Z,24.9
2016-06-25T03:28:33.529Z,24.9
2016-06-25T03:29:34.352Z,24.9
2016-06-25T03:30:35.290Z,24.9
2016-06-25T03:31:36.054Z,24.9
2016-06-25T03:32:37.074Z,24.9
2016-06-25T03:33:37.895Z,24.9
2016-06-25T03:34:38.713Z,25
2016-06-25T03:35:39.534Z,25
2016-06-25T03:36:40.480Z,24.9
2016-06-25T03:37:41.187Z,24.9
2016-06-25T03:38:42.003Z,25
2016-06-25T03:39:42.932Z,25
2016-06-25T03:40:43.641Z,25
2016-06-25T03:41:44.522Z,25
2016-06-25T03:42:45.554Z,25
2016-06-25T03:43:46.362Z,25
2016-06-25T03:44:47.182Z,25
2016-06-25T03:45:48.007Z,25
2016-06-25T03:46:48.824Z,25
2016-06-25T03:47:49.647Z,25
2016-06-25T03:48:50.470Z,25
2016-06-25T03:49:51.294Z,25
2016-06-25T03:50:52.117Z,25
2016-06-25T03:51:52.994Z,25
2016-06-25T03:52:54.013Z,25
2016-06-25T03:53:54.949Z,25
2016-06-25T03:54:55.770Z,25
2016-06-25T03:55:56.647Z,25
2016-06-25T03:56:57.421Z,25
2016-06-25T03:57:58.237Z,25
2016-06-25T03:58:58.937Z,25
2016-06-25T03:59:59.770Z,25
2016-06-25T04:01:00.585Z,25
2016-06-25T04:02:01.483Z,25.1
2016-06-25T04:03:02.483Z,25
2016-06-25T04:04:03.307Z,25
2016-06-25T04:05:04.244Z,25
2016-06-25T04:06:04.949Z,25.1
2016-06-25T04:07:05.771Z,25
2016-06-25T04:08:06.706Z,25.1
2016-06-25T04:09:07.414Z,25.1
2016-06-25T04:10:08.358Z,25.1
2016-06-25T04:11:09.176Z,25.1
2016-06-25T04:12:10.072Z,25.1
2016-06-25T04:13:11.193Z,25
2016-06-25T04:14:11.786Z,25.1
2016-06-25T04:15:12.621Z,25.1
2016-06-25T04:16:13.426Z,25
2016-06-25T04:17:14.252Z,25
2016-06-25T04:18:15.068Z,25.1
2016-06-25T04:19:15.887Z,25.1
2016-06-25T04:20:16.715Z,25
2016-06-25T04:21:17.910Z,25
2016-06-25T04:22:18.922Z,25.1
2016-06-25T04:23:19.940Z,25.1
2016-06-25T04:24:21.019Z,25.1
2016-06-25T04:25:22.349Z,25.1
2016-06-25T04:26:23.794Z,25.1
2016-06-25T04:27:25.130Z,25.1
2016-06-25T04:28:26.330Z,25.1
2016-06-25T04:29:27.664Z,25.1
2016-06-25T04:30:28.988Z,25.1
2016-06-25T04:31:30.312Z,25.1
2016-06-25T04:32:31.702Z,25.1
2016-06-25T04:33:32.722Z,25.1
2016-06-25T04:34:34.308Z,25.1
2016-06-25T04:35:35.998Z,25.1
2016-06-25T04:36:37.593Z,25.1
2016-06-25T04:37:39.046Z,25.1
2016-06-25T04:38:40.639Z,25.1
2016-06-25T04:39:42.209Z,25.1
2016-06-25T04:40:43.917Z,25.2
2016-06-25T04:41:45.371Z,25.1
2016-06-25T04:42:47.127Z,25.2
2016-06-25T04:43:48.033Z,25.3
2016-06-25T04:44:45.814Z,25.2
2016-06-25T04:45:43.704Z,25.3
2016-06-25T04:46:41.478Z,25.3
2016-06-25T04:47:39.143Z,25.3
2016-06-25T04:48:37.046Z,25.3
2016-06-25T04:49:34.713Z,25.4
2016-06-25T04:50:32.625Z,25.4
2016-06-25T04:51:30.638Z,25.4
2016-06-25T04:52:28.731Z,25.4
2016-06-25T04:53:29.752Z,25.4
2016-06-25T04:54:27.669Z,25.4
2016-06-25T04:55:25.701Z,25.5
2016-06-25T04:56:23.886Z,25.5
2016-06-25T04:57:22.130Z,25.5
2016-06-25T04:58:20.304Z,25.5
2016-06-25T04:59:18.586Z,25.5
2016-06-25T05:00:17.131Z,25.5
2016-06-25T05:01:15.789Z,25.5
2016-06-25T05:02:14.265Z,25.6
2016-06-25T05:03:15.297Z,25.6
2016-06-25T05:04:14.085Z,25.6
2016-06-25T05:05:12.878Z,25.6
2016-06-25T05:06:11.668Z,25.7
2016-06-25T05:07:10.215Z,25.7
2016-06-25T05:08:09.010Z,25.7
2016-06-25T05:09:07.921Z,25.8
2016-06-25T05:10:06.617Z,25.8
2016-06-25T05:11:05.768Z,25.8
2016-06-25T05:12:04.750Z,25.7
2016-06-25T05:13:05.774Z,25.8
2016-06-25T05:14:04.831Z,25.8
2016-06-25T05:15:03.864Z,25.9
2016-06-25T05:16:02.914Z,25.9
2016-06-25T05:17:01.959Z,25.9
2016-06-25T05:18:01.132Z,25.9
2016-06-25T05:19:00.055Z,25.9
2016-06-25T05:19:59.108Z,26
2016-06-25T05:20:58.156Z,26
2016-06-25T05:21:57.376Z,26.1
2016-06-25T05:22:58.287Z,26.1
2016-06-25T05:23:57.326Z,26.1
2016-06-25T05:24:56.498Z,26.1
2016-06-25T05:25:55.672Z,26.1
2016-06-25T05:26:55.231Z,26.1
2016-06-25T05:27:55.039Z,26.1
2016-06-25T05:28:54.848Z,26.1
2016-06-25T05:29:54.652Z,26.1
2016-06-25T05:30:54.575Z,26.1
2016-06-25T05:31:54.320Z,26.1
2016-06-25T05:32:55.467Z,26.1
2016-06-25T05:33:55.522Z,26.2
2016-06-25T05:34:55.584Z,26.2
2016-06-25T05:35:55.556Z,26.3
2016-06-25T05:36:55.445Z,26.3
2016-06-25T05:37:54.879Z,26.4
2016-06-25T05:38:54.184Z,26.4
2016-06-25T05:39:53.472Z,26.5
2016-06-25T05:40:52.772Z,26.5
2016-06-25T05:41:51.883Z,26.6
2016-06-25T05:42:52.897Z,26.7
2016-06-25T05:43:52.187Z,26.9
2016-06-25T05:44:51.353Z,27.1
2016-06-25T05:45:50.050Z,27.3
2016-06-25T05:46:48.680Z,27.7
2016-06-25T05:47:46.605Z,28.3
2016-06-25T05:48:48.297Z,29
2016-06-25T05:49:48.989Z,29.7
2016-06-25T05:50:48.823Z,30.5
2016-06-25T05:51:48.162Z,31.2
2016-06-25T05:52:49.175Z,31.8
2016-06-25T05:53:50.508Z,32.4
2016-06-25T05:54:51.063Z,33
2016-06-25T05:55:51.113Z,33.5
2016-06-25T05:56:50.703Z,33.9
2016-06-25T05:57:49.731Z,34.3
2016-06-25T05:58:48.262Z,34.5
2016-06-25T05:59:46.546Z,34.9
2016-06-25T06:00:44.689Z,35.1
2016-06-25T06:01:42.403Z,35.4
2016-06-25T06:02:43.399Z,35.6
2016-06-25T06:03:44.725Z,35.9
2016-06-25T06:04:45.536Z,36
2016-06-25T06:05:45.842Z,36.2
2016-06-25T06:06:46.157Z,36.3
2016-06-25T06:07:46.229Z,36.4
2016-06-25T06:08:46.137Z,36.3
2016-06-25T06:09:45.819Z,36.1
2016-06-25T06:10:45.849Z,35.7
2016-06-25T06:11:46.350Z,35.2
2016-06-25T06:12:47.241Z,34.5
2016-06-25T06:13:48.678Z,33.8
2016-06-25T06:14:46.343Z,33.2
2016-06-25T06:15:44.984Z,32.6
2016-06-25T06:16:44.015Z,32.1
2016-06-25T06:17:43.470Z,31.6
2016-06-25T06:18:43.494Z,31.2
2016-06-25T06:19:44.198Z,30.8
2016-06-25T06:20:45.151Z,30.4
2016-06-25T06:21:46.517Z,30.1
2016-06-25T06:22:47.533Z,29.8
2016-06-25T06:23:45.790Z,29.6
2016-06-25T06:24:44.330Z,29.3
2016-06-25T06:25:43.242Z,29.1
2016-06-25T06:26:42.423Z,28.9
2016-06-25T06:27:41.704Z,28.8
2016-06-25T06:28:41.503Z,28.6
2016-06-25T06:29:41.303Z,28.5
2016-06-25T06:30:41.379Z,28.3
2016-06-25T06:31:41.733Z,28.2
2016-06-25T06:32:42.986Z,28.1
2016-06-25T06:33:43.319Z,28
2016-06-25T06:34:44.229Z,27.9
2016-06-25T06:35:44.941Z,27.9
2016-06-25T06:36:46.010Z,27.7
2016-06-25T06:37:47.195Z,27.7
2016-06-25T06:38:48.413Z,27.6
2016-06-25T06:39:49.842Z,27.5
2016-06-25T06:40:51.308Z,27.5
2016-06-25T06:41:52.947Z,27.4
2016-06-25T06:42:53.967Z,27.3
2016-06-25T06:43:55.658Z,27.3
2016-06-25T06:44:57.116Z,27.2
2016-06-25T06:45:58.694Z,27.2
2016-06-25T06:46:56.589Z,27.2
2016-06-25T06:47:54.253Z,27.1
2016-06-25T06:48:52.037Z,27.1
2016-06-25T06:49:50.063Z,27.1
2016-06-25T06:50:48.091Z,27.1
2016-06-25T06:51:46.050Z,27
2016-06-25T06:52:46.946Z,27
2016-06-25T06:53:44.729Z,27
2016-06-25T06:54:42.873Z,26.9
2016-06-25T06:55:40.899Z,26.9
2016-06-25T06:56:38.806Z,26.9
2016-06-25T06:57:37.157Z,26.9
2016-06-25T06:58:35.132Z,26.9
2016-06-25T06:59:33.176Z,26.9
2016-06-25T07:00:31.195Z,26.9
2016-06-25T07:01:29.289Z,26.8
2016-06-25T07:02:30.308Z,26.8
2016-06-25T07:03:28.456Z,26.8
2016-06-25T07:04:26.375Z,26.8
2016-06-25T07:05:24.403Z,26.8
2016-06-25T07:06:22.431Z,26.8
2016-06-25T07:07:20.719Z,26.7
2016-06-25T07:08:18.748Z,26.7
2016-06-25T07:09:16.774Z,26.7
2016-06-25T07:10:14.841Z,26.7
2016-06-25T07:11:12.905Z,26.7
2016-06-25T07:12:13.917Z,26.7
2016-06-25T07:13:11.939Z,26.7
2016-06-25T07:14:10.223Z,26.7
2016-06-25T07:15:08.509Z,26.7
2016-06-25T07:16:06.809Z,26.7
2016-06-25T07:17:04.839Z,26.7
2016-06-25T07:18:02.870Z,26.7
2016-06-25T07:19:00.901Z,26.7
2016-06-25T07:19:59.047Z,26.7
2016-06-25T07:20:57.022Z,26.7
2016-06-25T07:21:58.039Z,26.6
2016-06-25T07:22:56.072Z,26.7
2016-06-25T07:23:54.091Z,26.7
2016-06-25T07:24:52.507Z,26.7
2016-06-25T07:25:50.422Z,26.6
2016-06-25T07:26:48.450Z,26.6
2016-06-25T07:27:46.482Z,26.6
2016-06-25T07:28:44.512Z,26.6
2016-06-25T07:29:42.554Z,26.6
2016-06-25T07:30:40.635Z,26.6
2016-06-25T07:31:41.650Z,26.6
2016-06-25T07:32:39.682Z,26.6
2016-06-25T07:33:37.831Z,26.6
2016-06-25T07:34:35.871Z,26.6
2016-06-25T07:35:33.784Z,26.6
2016-06-25T07:36:31.931Z,26.6
2016-06-25T07:37:29.850Z,26.6
2016-06-25T07:38:27.882Z,26.6
2016-06-25T07:39:25.915Z,26.5
2016-06-25T07:40:24.003Z,26.6
2016-06-25T07:41:25.134Z,26.6
2016-06-25T07:42:23.049Z,26.6
2016-06-25T07:43:21.202Z,26.6
2016-06-25T07:44:19.112Z,26.6
2016-06-25T07:45:17.156Z,26.5
2016-06-25T07:46:15.177Z,26.6
2016-06-25T07:47:13.214Z,26.5
2016-06-25T07:48:11.249Z,26.6
2016-06-25T07:49:09.392Z,26.6
2016-06-25T07:50:07.370Z,26.6
2016-06-25T07:51:08.506Z,26.5
2016-06-25T07:52:06.421Z,26.5
2016-06-25T07:53:04.455Z,26.5
2016-06-25T07:54:02.487Z,26.5
2016-06-25T07:55:00.525Z,26.5
2016-06-25T07:55:58.548Z,26.5
2016-06-25T07:56:56.697Z,26.6
2016-06-25T07:57:54.650Z,26.6
2016-06-25T07:58:52.650Z,26.5
2016-06-25T07:59:50.726Z,26.5
2016-06-25T08:00:51.743Z,26.5
2016-06-25T08:01:50.046Z,26.5
2016-06-25T08:02:48.069Z,26.6
2016-06-25T08:03:46.112Z,26.5
2016-06-25T08:04:44.134Z,26.6
2016-06-25T08:05:42.165Z,26.5
2016-06-25T08:06:40.199Z,26.5
2016-06-25T08:07:38.221Z,26.6
2016-06-25T08:08:36.521Z,26.5
2016-06-25T08:09:34.865Z,26.5
2016-06-25T08:10:35.879Z,26.6
2016-06-25T08:11:33.930Z,26.5
2016-06-25T08:12:31.951Z,26.5
2016-06-25T08:13:29.975Z,26.5
2016-06-25T08:14:28.257Z,26.5
2016-06-25T08:15:26.558Z,26.5
2016-06-25T08:16:24.604Z,26.5
2016-06-25T08:17:22.741Z,26.6
2016-06-25T08:18:20.662Z,26.5
2016-06-25T08:19:18.854Z,26.5
2016-06-25T08:20:19.748Z,26.6
2016-06-25T08:21:18.034Z,26.5
2016-06-25T08:22:16.321Z,26.5
2016-06-25T08:23:14.613Z,26.5
2016-06-25T08:24:13.010Z,26.6
2016-06-25T08:25:11.183Z,26.6
2016-06-25T08:26:09.472Z,26.5
2016-06-25T08:27:07.757Z,26.5
2016-06-25T08:28:06.035Z,26.6
2016-06-25T08:29:04.388Z,26.5
2016-06-25T08:30:05.406Z,26.6
2016-06-25T08:31:03.430Z,26.5
2016-06-25T08:32:01.719Z,26.5
2016-06-25T08:33:00.001Z,26.6
2016-06-25T08:33:58.406Z,26.6
2016-06-25T08:34:56.692Z,26.6
2016-06-25T08:35:54.867Z,26.6
2016-06-25T08:36:52.902Z,26.7
2016-06-25T08:37:51.049Z,26.6
2016-06-25T08:38:49.021Z,26.6
2016-06-25T08:39:50.158Z,26.6
2016-06-25T08:40:47.825Z,26.6
2016-06-25T08:41:45.599Z,26.6
2016-06-25T08:42:43.376Z,26.7
2016-06-25T08:43:41.157Z,26.6
2016-06-25T08:44:42.739Z,26.6
2016-06-25T08:45:44.316Z,26.6
2016-06-25T08:46:45.898Z,26.6
2016-06-25T08:47:47.599Z,26.6
2016-06-25T08:48:49.111Z,26.6
2016-06-25T08:49:50.132Z,26.6
2016-06-25T08:50:51.706Z,26.6
2016-06-25T08:51:53.287Z,26.6
2016-06-25T08:52:54.991Z,26.7
2016-06-25T08:53:56.198Z,26.7
2016-06-25T08:54:57.526Z,26.7
2016-06-25T08:55:58.856Z,26.7
2016-06-25T08:57:00.177Z,26.7
2016-06-25T08:58:01.535Z,26.7
2016-06-25T08:59:03.004Z,26.6
2016-06-25T09:00:03.915Z,26.7
2016-06-25T09:01:04.979Z,26.7
2016-06-25T09:02:06.167Z,26.7
2016-06-25T09:03:07.126Z,26.7
2016-06-25T09:04:08.199Z,26.7
2016-06-25T09:05:09.389Z,26.7
2016-06-25T09:06:10.346Z,26.7
2016-06-25T09:07:11.423Z,26.6
2016-06-25T09:08:12.490Z,26.7
2016-06-25T09:09:13.481Z,26.7
2016-06-25T09:10:14.381Z,26.7
2016-06-25T09:11:15.208Z,26.7
2016-06-25T09:12:16.017Z,26.7
2016-06-25T09:13:16.841Z,26.7
2016-06-25T09:14:17.773Z,26.7
2016-06-25T09:15:18.482Z,26.7
2016-06-25T09:16:19.423Z,26.7
2016-06-25T09:17:20.235Z,26.7
2016-06-25T09:18:20.942Z,26.7
2016-06-25T09:19:21.815Z,26.7
2016-06-25T09:20:22.831Z,26.7
2016-06-25T09:21:23.783Z,26.7
2016-06-25T09:22:24.482Z,26.7
2016-06-25T09:23:25.298Z,26.7
2016-06-25T09:24:26.228Z,26.7
2016-06-25T09:25:26.933Z,26.7
2016-06-25T09:26:27.497Z,26.7
2016-06-25T09:27:28.064Z,26.7
2016-06-25T09:28:28.751Z,26.7
2016-06-25T09:29:29.259Z,26.7
2016-06-25T09:30:30.276Z,26.7
2016-06-25T09:31:30.843Z,26.7
2016-06-25T09:32:31.421Z,26.7
2016-06-25T09:33:31.980Z,26.7
2016-06-25T09:34:32.546Z,26.7
2016-06-25T09:35:33.112Z,26.7
2016-06-25T09:36:33.679Z,26.7
2016-06-25T09:37:34.246Z,26.7
2016-06-25T09:38:35.046Z,26.7
2016-06-25T09:39:35.432Z,26.7
2016-06-25T09:40:36.574Z,26.7
2016-06-25T09:41:37.142Z,26.7
2016-06-25T09:42:37.707Z,26.7
2016-06-25T09:43:38.158Z,26.7
2016-06-25T09:44:38.723Z,26.7
2016-06-25T09:45:39.302Z,26.7
2016-06-25T09:46:39.881Z,26.7
2016-06-25T09:47:40.430Z,26.7
2016-06-25T09:48:41.004Z,26.7
2016-06-25T09:49:41.662Z,26.7
2016-06-25T09:50:42.642Z,26.7
2016-06-25T09:51:43.244Z,26.7
2016-06-25T09:52:43.778Z,26.7
2016-06-25T09:53:44.454Z,26.7
2016-06-25T09:54:44.906Z,26.6
2016-06-25T09:55:45.475Z,26.7
2016-06-25T09:56:46.039Z,26.7
2016-06-25T09:57:46.721Z,26.6
2016-06-25T09:58:47.222Z,26.6
2016-06-25T09:59:47.794Z,26.6
2016-06-25T10:00:48.818Z,26.6
2016-06-25T10:01:49.493Z,26.6
2016-06-25T10:02:49.947Z,26.6
2016-06-25T10:03:50.635Z,26.6
2016-06-25T10:04:51.200Z,26.6
2016-06-25T10:05:51.655Z,26.6
2016-06-25T10:06:52.350Z,26.6
2016-06-25T10:07:52.788Z,26.6
2016-06-25T10:08:53.474Z,26.6
2016-06-25T10:09:53.979Z,26.6
2016-06-25T10:10:55.007Z,26.5
2016-06-25T10:11:55.563Z,26.6
2016-06-25T10:12:56.136Z,26.6
2016-06-25T10:13:56.743Z,26.6
2016-06-25T10:14:57.271Z,26.6
2016-06-25T10:15:57.951Z,26.6
2016-06-25T10:16:58.406Z,26.6
2016-06-25T10:17:58.985Z,26.5
2016-06-25T10:18:59.536Z,26.6
2016-06-25T10:20:00.164Z,26.5
2016-06-25T10:23:02.314Z,26.6
2016-06-25T10:24:02.908Z,26.5
2016-06-25T10:25:03.515Z,26.5
2016-06-25T10:26:04.279Z,26.5
2016-06-25T10:27:04.596Z,26.5
2016-06-25T10:28:05.383Z,26.5
2016-06-25T10:29:05.876Z,26.5
2016-06-25T10:30:06.350Z,26.5
2016-06-25T10:31:07.517Z,26.5
2016-06-25T10:32:08.193Z,26.4
2016-06-25T10:33:09.009Z,26.4
2016-06-25T10:34:09.835Z,26.4
2016-06-25T10:35:10.681Z,26.4
2016-06-25T10:36:11.631Z,26.4
2016-06-25T10:37:12.293Z,26.4
2016-06-25T10:38:13.127Z,26.4
2016-06-25T10:39:13.935Z,26.4
2016-06-25T10:40:14.835Z,26.4
2016-06-25T10:41:15.830Z,26.4
2016-06-25T10:42:16.762Z,26.4
2016-06-25T10:43:17.487Z,26.4
2016-06-25T10:44:18.299Z,26.4
2016-06-25T10:45:19.107Z,26.4
2016-06-25T10:46:20.054Z,26.4
2016-06-25T10:47:20.761Z,26.4
2016-06-25T10:48:21.595Z,26.4
2016-06-25T10:49:22.395Z,26.4
2016-06-25T10:50:23.273Z,26.4
2016-06-25T10:51:24.274Z,26.5
2016-06-25T10:52:25.102Z,26.5
2016-06-25T10:53:25.927Z,26.5
2016-06-25T10:54:26.864Z,26.5
2016-06-25T10:55:27.558Z,26.5
2016-06-25T10:56:28.391Z,26.5
2016-06-25T10:57:29.204Z,26.5
2016-06-25T10:58:30.021Z,26.5
2016-06-25T10:59:30.891Z,26.5
2016-06-25T11:00:31.832Z,26.5
2016-06-25T11:01:32.874Z,26.5
2016-06-25T11:02:33.813Z,26.5
2016-06-25T11:03:35.000Z,26.5
2016-06-25T11:04:36.078Z,26.5
2016-06-25T11:05:37.149Z,26.5
2016-06-25T11:06:38.236Z,26.5
2016-06-25T11:07:39.305Z,26.5
2016-06-25T11:08:40.255Z,26.5
2016-06-25T11:09:41.458Z,26.5
2016-06-25T11:10:42.722Z,26.5
2016-06-25T11:11:43.734Z,26.5
2016-06-25T11:12:45.086Z,26.5
2016-06-25T11:13:46.411Z,26.5
2016-06-25T11:14:47.970Z,26.5
2016-06-25T11:15:49.419Z,26.5
2016-06-25T11:16:50.874Z,26.5
2016-06-25T11:17:48.787Z,26.5
2016-06-25T11:18:46.449Z,26.5
2016-06-25T11:19:44.473Z,26.6
2016-06-25T11:20:42.679Z,26.5
2016-06-25T11:21:43.606Z,26.5
2016-06-25T11:22:41.605Z,26.5
2016-06-25T11:23:39.895Z,26.5
2016-06-25T11:24:38.300Z,26.5
2016-06-25T11:25:36.584Z,26.5
2016-06-25T11:26:34.754Z,26.5
2016-06-25T11:27:33.313Z,26.5
2016-06-25T11:28:31.838Z,26.5
2016-06-25T11:29:30.491Z,26.5
2016-06-25T11:30:28.969Z,26.5
2016-06-25T11:31:29.981Z,26.5
2016-06-25T11:32:28.523Z,26.5
2016-06-25T11:33:27.432Z,26.5
2016-06-25T11:34:26.109Z,26.5
2016-06-25T11:35:25.023Z,26.5
2016-06-25T11:36:23.714Z,26.5
2016-06-25T11:37:22.648Z,26.5
2016-06-25T11:38:21.533Z,26.5
2016-06-25T11:39:20.598Z,26.5
2016-06-25T11:40:19.688Z,26.5
2016-06-25T11:41:20.719Z,26.5
2016-06-25T11:42:19.748Z,26.5
2016-06-25T11:43:18.792Z,26.5
2016-06-25T11:44:17.850Z,26.5
2016-06-25T11:45:17.007Z,26.5
2016-06-25T11:46:15.951Z,26.5
2016-06-25T11:47:14.986Z,26.5
2016-06-25T11:51:13.198Z,26.5
2016-06-25T11:52:12.290Z,26.5
2016-06-25T11:53:11.445Z,26.5
2016-06-25T11:54:10.494Z,26.5
2016-06-25T11:55:09.689Z,26.5
2016-06-25T11:56:08.943Z,26.5
2016-06-25T11:57:08.174Z,26.5
2016-06-25T11:58:07.367Z,26.4
2016-06-25T11:59:06.563Z,26.5
2016-06-25T12:00:05.800Z,26.5
2016-06-25T12:01:06.581Z,26.5
2016-06-25T12:02:05.751Z,26.5
2016-06-25T12:03:04.762Z,26.4
2016-06-25T12:07:00.867Z,26.4
2016-06-25T12:08:00.052Z,26.4
2016-06-25T12:08:58.850Z,26.4
2016-06-25T12:09:57.935Z,26.5
2016-06-25T12:10:59.101Z,26.4
2016-06-25T12:11:57.958Z,26.5
2016-06-25T12:12:56.543Z,26.4
2016-06-25T12:13:55.552Z,26.5
2016-06-25T12:14:53.851Z,26.5
2016-06-25T12:15:52.513Z,26.5
2016-06-25T12:16:51.044Z,26.5
2016-06-25T12:17:49.228Z,26.5
2016-06-25T12:18:47.254Z,26.5
2016-06-25T12:19:45.364Z,26.5
2016-06-25T12:20:46.364Z,26.5
2016-06-25T12:21:44.641Z,26.5
2016-06-25T12:22:42.943Z,26.5
2016-06-25T12:23:41.338Z,26.5
2016-06-25T12:24:39.255Z,26.5
2016-06-25T12:25:37.401Z,26.5
2016-06-25T12:26:35.317Z,26.5
2016-06-25T12:27:33.358Z,26.5
2016-06-25T12:28:31.497Z,26.5
2016-06-25T12:29:29.495Z,26.6
2016-06-25T12:30:30.493Z,26.5
2016-06-25T12:31:28.640Z,26.5
2016-06-25T12:32:26.555Z,26.5
2016-06-25T12:33:24.589Z,26.5
2016-06-25T12:34:22.736Z,26.5
2016-06-25T12:35:21.021Z,26.5
2016-06-25T12:36:19.189Z,26.5
2016-06-25T12:37:17.498Z,26.5
2016-06-25T12:38:15.891Z,26.6
2016-06-25T12:39:14.104Z,26.6
2016-06-25T12:40:15.132Z,26.6
2016-06-25T12:41:13.424Z,26.6
2016-06-25T12:42:11.947Z,26.6
2016-06-25T12:43:10.602Z,26.6
2016-06-25T12:44:09.154Z,26.5
2016-06-25T12:45:07.561Z,26.6
2016-06-25T12:46:06.105Z,26.6
2016-06-25T12:47:04.641Z,26.6
2016-06-25T12:48:03.194Z,26.6
2016-06-25T12:49:01.775Z,26.6
2016-06-25T12:50:02.810Z,26.6
2016-06-25T12:51:01.569Z,26.6
2016-06-25T12:51:59.875Z,26.5
2016-06-25T12:52:58.653Z,26.6
2016-06-25T12:53:56.958Z,26.6
2016-06-25T12:54:55.749Z,26.6
2016-06-25T12:55:54.563Z,26.6
2016-06-25T12:56:53.338Z,26.6
2016-06-25T12:57:52.153Z,26.6
2016-06-25T12:58:50.983Z,26.6
2016-06-25T12:59:52.122Z,26.6
2016-06-25T13:00:50.842Z,26.6
2016-06-25T13:01:49.588Z,26.6
2016-06-25T13:02:48.382Z,26.6
2016-06-25T13:03:47.171Z,26.6
2016-06-25T13:04:46.085Z,26.6
2016-06-25T13:05:44.759Z,26.6
2016-06-25T13:06:43.566Z,26.6
2016-06-25T13:07:42.599Z,26.6
2016-06-25T13:08:41.834Z,26.6
2016-06-25T13:09:42.858Z,26.6
2016-06-25T13:10:41.771Z,26.6
2016-06-25T13:11:40.815Z,26.6
2016-06-25T13:12:39.858Z,26.6
2016-06-25T13:13:38.906Z,26.6
2016-06-25T13:14:37.952Z,26.6
2016-06-25T13:15:37.028Z,26.6
2016-06-25T13:16:36.163Z,26.6
2016-06-25T13:17:35.205Z,26.6
2016-06-25T13:18:34.447Z,26.6
2016-06-25T13:19:35.579Z,26.6
2016-06-25T13:20:34.875Z,26.6
2016-06-25T13:21:34.057Z,26.6
2016-06-25T13:22:33.483Z,26.6
2016-06-25T13:23:32.774Z,26.6
2016-06-25T13:24:32.075Z,26.7
2016-06-25T13:25:31.260Z,26.6
2016-06-25T13:26:30.676Z,26.6
2016-06-25T13:27:29.974Z,26.6
2016-06-25T13:28:29.215Z,26.7
2016-06-25T13:29:30.231Z,26.6
2016-06-25T13:30:30.023Z,26.6
2016-06-25T13:31:29.085Z,26.6
2016-06-25T13:32:28.386Z,26.6
2016-06-25T13:33:27.688Z,26.7
2016-06-25T13:34:27.239Z,26.6
2016-06-25T13:35:26.792Z,26.6